sensor_id;sensor_type;location;lat;lon;timestamp;pressure;altitude;pressure_sealevel;temperature;humidity
69127;BME280;56688;50.234;19.292;2023-04-28T00:00:49;98978.89;;;3.09;74.04
69127;BME280;56688;50.234;19.292;2023-04-28T00:03:17;98975.77;;;3.10;73.93
69127;BME280;56688;50.234;19.292;2023-04-28T00:05:44;98974.58;;;3.08;74.06
69127;BME280;56688;50.234;19.292;2023-04-28T00:08:11;98974.89;;;3.10;74.01
69127;BME280;56688;50.234;19.292;2023-04-28T00:10:38;98975.27;;;3.14;74.06
69127;BME280;56688;50.234;19.292;2023-04-28T00:13:04;98977.44;;;3.17;73.62
69127;BME280;56688;50.234;19.292;2023-04-28T00:15:31;98972.66;;;3.19;73.51
69127;BME280;56688;50.234;19.292;2023-04-28T00:17:58;98974.64;;;3.21;73.34
69127;BME280;56688;50.234;19.292;2023-04-28T00:20:25;98977.47;;;3.21;73.29
69127;BME280;56688;50.234;19.292;2023-04-28T00:22:52;98977.96;;;3.19;73.18
69127;BME280;56688;50.234;19.292;2023-04-28T00:25:18;98978.39;;;3.19;73.12
69127;BME280;56688;50.234;19.292;2023-04-28T00:27:45;98976.28;;;3.19;73.18
69127;BME280;56688;50.234;19.292;2023-04-28T00:30:12;98975.46;;;3.20;73.13
69127;BME280;56688;50.234;19.292;2023-04-28T00:32:39;98979.00;;;3.21;73.25
69127;BME280;56688;50.234;19.292;2023-04-28T00:35:06;98976.89;;;3.22;73.64
69127;BME280;56688;50.234;19.292;2023-04-28T00:37:36;98975.75;;;3.20;73.59
69127;BME280;56688;50.234;19.292;2023-04-28T00:40:03;98973.19;;;3.18;73.47
69127;BME280;56688;50.234;19.292;2023-04-28T00:42:30;98974.04;;;3.16;73.43
69127;BME280;56688;50.234;19.292;2023-04-28T00:44:57;98972.23;;;3.14;73.06
69127;BME280;56688;50.234;19.292;2023-04-28T00:47:24;98972.17;;;3.11;73.15
69127;BME280;56688;50.234;19.292;2023-04-28T00:49:51;98971.11;;;3.09;73.27
69127;BME280;56688;50.234;19.292;2023-04-28T00:52:19;98973.39;;;3.09;73.42
69127;BME280;56688;50.234;19.292;2023-04-28T00:54:47;98969.56;;;3.11;73.53
69127;BME280;56688;50.234;19.292;2023-04-28T00:57:14;98971.64;;;3.13;73.32
69127;BME280;56688;50.234;19.292;2023-04-28T00:59:40;98969.23;;;3.14;73.33
69127;BME280;56688;50.234;19.292;2023-04-28T01:02:07;98968.67;;;3.15;73.35
69127;BME280;56688;50.234;19.292;2023-04-28T01:04:34;98971.14;;;3.15;73.41
69127;BME280;56688;50.234;19.292;2023-04-28T01:07:02;98970.38;;;3.13;73.11
69127;BME280;56688;50.234;19.292;2023-04-28T01:09:30;98975.11;;;3.09;73.25
69127;BME280;56688;50.234;19.292;2023-04-28T01:11:57;98979.56;;;3.07;73.26
69127;BME280;56688;50.234;19.292;2023-04-28T01:14:39;98981.73;;;3.04;73.31
69127;BME280;56688;50.234;19.292;2023-04-28T01:17:06;98984.10;;;3.03;73.26
69127;BME280;56688;50.234;19.292;2023-04-28T01:19:34;98981.98;;;3.03;73.71
69127;BME280;56688;50.234;19.292;2023-04-28T01:22:01;98983.98;;;3.04;73.66
69127;BME280;56688;50.234;19.292;2023-04-28T01:24:28;98980.55;;;3.05;73.94
69127;BME280;56688;50.234;19.292;2023-04-28T01:26:58;98980.28;;;3.06;73.85
69127;BME280;56688;50.234;19.292;2023-04-28T01:29:26;98982.38;;;3.07;73.78
69127;BME280;56688;50.234;19.292;2023-04-28T01:31:53;98979.48;;;3.05;73.71
69127;BME280;56688;50.234;19.292;2023-04-28T01:34:20;98980.15;;;3.02;73.52
69127;BME280;56688;50.234;19.292;2023-04-28T01:36:47;98976.88;;;2.95;73.45
69127;BME280;56688;50.234;19.292;2023-04-28T01:39:14;98975.70;;;2.86;73.44
69127;BME280;56688;50.234;19.292;2023-04-28T01:41:41;98971.67;;;2.75;73.42
69127;BME280;56688;50.234;19.292;2023-04-28T01:44:08;98969.47;;;2.63;73.51
69127;BME280;56688;50.234;19.292;2023-04-28T01:46:35;98970.27;;;2.56;73.76
69127;BME280;56688;50.234;19.292;2023-04-28T01:49:02;98967.38;;;2.50;74.10
69127;BME280;56688;50.234;19.292;2023-04-28T01:51:29;98969.99;;;2.46;74.19
69127;BME280;56688;50.234;19.292;2023-04-28T01:53:56;98966.90;;;2.45;74.32
69127;BME280;56688;50.234;19.292;2023-04-28T01:56:23;98969.67;;;2.42;74.46
69127;BME280;56688;50.234;19.292;2023-04-28T01:58:51;98973.66;;;2.36;74.54
69127;BME280;56688;50.234;19.292;2023-04-28T02:01:18;98969.98;;;2.29;74.69
69127;BME280;56688;50.234;19.292;2023-04-28T02:03:46;98968.46;;;2.22;74.69
69127;BME280;56688;50.234;19.292;2023-04-28T02:06:15;98968.55;;;2.14;74.99
69127;BME280;56688;50.234;19.292;2023-04-28T02:08:41;98967.53;;;2.12;75.54
69127;BME280;56688;50.234;19.292;2023-04-28T02:11:11;98971.88;;;2.12;75.57
69127;BME280;56688;50.234;19.292;2023-04-28T02:13:38;98969.92;;;2.15;75.83
69127;BME280;56688;50.234;19.292;2023-04-28T02:16:05;98970.75;;;2.17;75.64
69127;BME280;56688;50.234;19.292;2023-04-28T02:18:32;98970.96;;;2.19;75.35
69127;BME280;56688;50.234;19.292;2023-04-28T02:21:09;98968.58;;;2.20;75.31
69127;BME280;56688;50.234;19.292;2023-04-28T02:23:38;98967.80;;;2.19;74.97
69127;BME280;56688;50.234;19.292;2023-04-28T02:26:05;98965.08;;;2.16;74.89
69127;BME280;56688;50.234;19.292;2023-04-28T02:28:32;98962.98;;;2.11;75.00
69127;BME280;56688;50.234;19.292;2023-04-28T02:31:04;98961.52;;;2.06;74.71
69127;BME280;56688;50.234;19.292;2023-04-28T02:33:31;98959.70;;;2.00;74.99
69127;BME280;56688;50.234;19.292;2023-04-28T02:35:59;98961.35;;;1.97;75.02
69127;BME280;56688;50.234;19.292;2023-04-28T02:38:26;98960.80;;;1.95;75.14
69127;BME280;56688;50.234;19.292;2023-04-28T02:41:02;98961.02;;;1.94;75.24
69127;BME280;56688;50.234;19.292;2023-04-28T02:43:31;98961.60;;;1.94;75.25
69127;BME280;56688;50.234;19.292;2023-04-28T02:45:58;98960.36;;;1.94;75.36
69127;BME280;56688;50.234;19.292;2023-04-28T02:48:25;98962.62;;;1.96;75.19
69127;BME280;56688;50.234;19.292;2023-04-28T02:50:52;98958.38;;;1.90;74.85
69127;BME280;56688;50.234;19.292;2023-04-28T02:53:20;98954.31;;;1.86;74.37
69127;BME280;56688;50.234;19.292;2023-04-28T02:55:47;98950.58;;;1.76;74.19
69127;BME280;56688;50.234;19.292;2023-04-28T02:58:14;98955.38;;;1.68;74.27
69127;BME280;56688;50.234;19.292;2023-04-28T03:00:44;98952.41;;;1.61;74.46
69127;BME280;56688;50.234;19.292;2023-04-28T03:03:12;98950.80;;;1.57;74.37
69127;BME280;56688;50.234;19.292;2023-04-28T03:05:39;98952.34;;;1.51;74.79
69127;BME280;56688;50.234;19.292;2023-04-28T03:08:06;98951.72;;;1.46;75.15
69127;BME280;56688;50.234;19.292;2023-04-28T03:10:33;98949.45;;;1.39;75.42
69127;BME280;56688;50.234;19.292;2023-04-28T03:13:00;98947.32;;;1.32;75.29
69127;BME280;56688;50.234;19.292;2023-04-28T03:15:28;98950.54;;;1.25;75.78
69127;BME280;56688;50.234;19.292;2023-04-28T03:17:55;98946.02;;;1.18;75.55
69127;BME280;56688;50.234;19.292;2023-04-28T03:20:22;98949.43;;;1.14;76.07
69127;BME280;56688;50.234;19.292;2023-04-28T03:22:49;98953.42;;;1.10;76.12
69127;BME280;56688;50.234;19.292;2023-04-28T03:25:17;98955.48;;;1.08;76.52
69127;BME280;56688;50.234;19.292;2023-04-28T03:27:47;98954.39;;;1.06;76.49
69127;BME280;56688;50.234;19.292;2023-04-28T03:30:14;98958.34;;;1.03;76.42
69127;BME280;56688;50.234;19.292;2023-04-28T03:32:41;98953.11;;;0.98;76.83
69127;BME280;56688;50.234;19.292;2023-04-28T03:35:08;98951.20;;;0.93;76.52
69127;BME280;56688;50.234;19.292;2023-04-28T03:37:35;98948.73;;;0.91;77.22
69127;BME280;56688;50.234;19.292;2023-04-28T03:40:02;98951.54;;;0.91;77.25
69127;BME280;56688;50.234;19.292;2023-04-28T03:42:37;98950.16;;;0.93;77.43
69127;BME280;56688;50.234;19.292;2023-04-28T03:45:07;98943.23;;;0.95;77.40
69127;BME280;56688;50.234;19.292;2023-04-28T03:47:34;98939.10;;;0.96;77.63
69127;BME280;56688;50.234;19.292;2023-04-28T03:50:02;98943.32;;;0.98;77.79
69127;BME280;56688;50.234;19.292;2023-04-28T03:52:29;98944.02;;;0.98;77.95
69127;BME280;56688;50.234;19.292;2023-04-28T03:54:56;98946.61;;;1.03;78.14
69127;BME280;56688;50.234;19.292;2023-04-28T03:57:23;98943.27;;;1.07;78.02
69127;BME280;56688;50.234;19.292;2023-04-28T03:59:50;98939.38;;;1.15;77.70
69127;BME280;56688;50.234;19.292;2023-04-28T04:02:17;98936.90;;;1.22;77.81
69127;BME280;56688;50.234;19.292;2023-04-28T04:04:44;98939.47;;;1.29;77.65
69127;BME280;56688;50.234;19.292;2023-04-28T04:07:12;98930.85;;;1.36;77.27
69127;BME280;56688;50.234;19.292;2023-04-28T04:09:39;98930.21;;;1.40;77.45
69127;BME280;56688;50.234;19.292;2023-04-28T04:12:06;98933.77;;;1.51;77.20
69127;BME280;56688;50.234;19.292;2023-04-28T04:14:33;98939.23;;;1.57;76.60
69127;BME280;56688;50.234;19.292;2023-04-28T04:17:00;98934.91;;;1.63;76.75
69127;BME280;56688;50.234;19.292;2023-04-28T04:19:27;98937.98;;;1.73;76.48
69127;BME280;56688;50.234;19.292;2023-04-28T04:21:55;98933.98;;;1.84;76.41
69127;BME280;56688;50.234;19.292;2023-04-28T04:24:22;98936.11;;;2.00;76.20
69127;BME280;56688;50.234;19.292;2023-04-28T04:26:49;98929.33;;;2.12;75.87
69127;BME280;56688;50.234;19.292;2023-04-28T04:29:26;98938.66;;;2.36;75.45
69127;BME280;56688;50.234;19.292;2023-04-28T04:31:53;98942.11;;;2.58;75.03
69127;BME280;56688;50.234;19.292;2023-04-28T04:34:20;98944.34;;;2.80;74.50
69127;BME280;56688;50.234;19.292;2023-04-28T04:36:47;98942.60;;;2.98;73.76
69127;BME280;56688;50.234;19.292;2023-04-28T04:39:14;98942.33;;;3.16;73.13
69127;BME280;56688;50.234;19.292;2023-04-28T04:41:41;98941.25;;;3.33;72.43
69127;BME280;56688;50.234;19.292;2023-04-28T04:44:22;98941.46;;;3.51;71.71
69127;BME280;56688;50.234;19.292;2023-04-28T04:46:50;98943.88;;;3.70;71.19
69127;BME280;56688;50.234;19.292;2023-04-28T04:49:18;98944.83;;;3.89;70.54
69127;BME280;56688;50.234;19.292;2023-04-28T04:51:45;98940.00;;;4.08;69.86
69127;BME280;56688;50.234;19.292;2023-04-28T04:54:12;98943.01;;;4.27;69.38
69127;BME280;56688;50.234;19.292;2023-04-28T04:56:40;98943.61;;;4.49;68.87
69127;BME280;56688;50.234;19.292;2023-04-28T04:59:09;98941.79;;;4.75;68.46
69127;BME280;56688;50.234;19.292;2023-04-28T05:01:51;98941.56;;;5.05;67.35
69127;BME280;56688;50.234;19.292;2023-04-28T05:04:18;98943.49;;;5.31;66.48
69127;BME280;56688;50.234;19.292;2023-04-28T05:06:46;98942.80;;;5.57;66.08
69127;BME280;56688;50.234;19.292;2023-04-28T05:09:13;98945.36;;;5.82;64.40
69127;BME280;56688;50.234;19.292;2023-04-28T05:11:40;98945.42;;;6.03;63.20
69127;BME280;56688;50.234;19.292;2023-04-28T05:14:07;98944.94;;;6.25;62.87
69127;BME280;56688;50.234;19.292;2023-04-28T05:16:34;98944.13;;;6.44;62.58
69127;BME280;56688;50.234;19.292;2023-04-28T05:19:14;98945.82;;;6.66;61.01
69127;BME280;56688;50.234;19.292;2023-04-28T05:21:41;98951.35;;;6.83;60.80
69127;BME280;56688;50.234;19.292;2023-04-28T05:24:08;98953.70;;;7.02;60.24
69127;BME280;56688;50.234;19.292;2023-04-28T05:26:35;98953.99;;;7.20;59.24
69127;BME280;56688;50.234;19.292;2023-04-28T05:29:07;98952.20;;;7.37;58.17
69127;BME280;56688;50.234;19.292;2023-04-28T05:31:34;98951.23;;;7.57;57.89
69127;BME280;56688;50.234;19.292;2023-04-28T05:34:01;98953.17;;;7.81;57.10
69127;BME280;56688;50.234;19.292;2023-04-28T05:36:28;98946.52;;;8.09;57.07
69127;BME280;56688;50.234;19.292;2023-04-28T05:38:55;98945.20;;;8.37;56.27
69127;BME280;56688;50.234;19.292;2023-04-28T05:41:22;98945.45;;;8.69;55.77
69127;BME280;56688;50.234;19.292;2023-04-28T05:43:49;98942.02;;;9.09;54.08
69127;BME280;56688;50.234;19.292;2023-04-28T05:46:17;98937.95;;;9.54;52.22
69127;BME280;56688;50.234;19.292;2023-04-28T05:48:57;98938.86;;;10.02;51.38
69127;BME280;56688;50.234;19.292;2023-04-28T05:51:25;98934.70;;;10.48;49.85
69127;BME280;56688;50.234;19.292;2023-04-28T05:53:52;98934.21;;;10.87;48.49
69127;BME280;56688;50.234;19.292;2023-04-28T05:56:20;98941.22;;;11.28;46.86
69127;BME280;56688;50.234;19.292;2023-04-28T05:58:47;98938.52;;;11.67;46.24
69127;BME280;56688;50.234;19.292;2023-04-28T06:01:16;98938.23;;;12.10;46.21
69127;BME280;56688;50.234;19.292;2023-04-28T06:03:44;98931.09;;;12.55;43.61
69127;BME280;56688;50.234;19.292;2023-04-28T06:06:12;98928.71;;;12.95;42.19
69127;BME280;56688;50.234;19.292;2023-04-28T06:08:39;98929.88;;;13.29;41.24
69127;BME280;56688;50.234;19.292;2023-04-28T06:11:06;98931.79;;;13.53;39.94
69127;BME280;56688;50.234;19.292;2023-04-28T06:13:33;98931.15;;;13.69;38.53
69127;BME280;56688;50.234;19.292;2023-04-28T06:16:02;98934.63;;;13.71;37.89
69127;BME280;56688;50.234;19.292;2023-04-28T06:18:30;98932.84;;;13.67;38.21
69127;BME280;56688;50.234;19.292;2023-04-28T06:20:59;98930.49;;;13.85;39.26
69127;BME280;56688;50.234;19.292;2023-04-28T06:23:27;98927.85;;;13.95;39.03
69127;BME280;56688;50.234;19.292;2023-04-28T06:25:53;98931.44;;;14.01;38.52
69127;BME280;56688;50.234;19.292;2023-04-28T06:28:20;98928.42;;;14.11;38.37
69127;BME280;56688;50.234;19.292;2023-04-28T06:30:47;98929.41;;;14.22;38.34
69127;BME280;56688;50.234;19.292;2023-04-28T06:33:14;98928.23;;;14.34;37.57
69127;BME280;56688;50.234;19.292;2023-04-28T06:35:41;98929.94;;;14.49;37.93
69127;BME280;56688;50.234;19.292;2023-04-28T06:38:08;98933.75;;;14.65;37.25
69127;BME280;56688;50.234;19.292;2023-04-28T06:40:36;98927.60;;;14.78;37.33
69127;BME280;56688;50.234;19.292;2023-04-28T06:43:04;98925.73;;;15.03;36.46
69127;BME280;56688;50.234;19.292;2023-04-28T06:45:36;98928.09;;;15.14;36.31
69127;BME280;56688;50.234;19.292;2023-04-28T06:48:04;98929.33;;;15.17;35.18
69127;BME280;56688;50.234;19.292;2023-04-28T06:50:31;98927.38;;;15.10;35.15
69127;BME280;56688;50.234;19.292;2023-04-28T06:52:58;98923.86;;;15.18;35.39
69127;BME280;56688;50.234;19.292;2023-04-28T06:55:28;98922.48;;;15.40;35.73
69127;BME280;56688;50.234;19.292;2023-04-28T06:57:57;98923.32;;;15.73;36.28
69127;BME280;56688;50.234;19.292;2023-04-28T07:00:23;98918.54;;;16.14;36.03
69127;BME280;56688;50.234;19.292;2023-04-28T07:02:50;98915.80;;;16.50;34.99
69127;BME280;56688;50.234;19.292;2023-04-28T07:05:18;98912.76;;;16.75;33.66
69127;BME280;56688;50.234;19.292;2023-04-28T07:07:45;98913.14;;;16.88;33.21
69127;BME280;56688;50.234;19.292;2023-04-28T07:10:13;98910.55;;;17.14;33.88
69127;BME280;56688;50.234;19.292;2023-04-28T07:12:41;98903.55;;;17.46;32.50
69127;BME280;56688;50.234;19.292;2023-04-28T07:15:08;98904.89;;;17.57;32.24
69127;BME280;56688;50.234;19.292;2023-04-28T07:17:36;98904.67;;;17.59;32.09
69127;BME280;56688;50.234;19.292;2023-04-28T07:20:04;98901.58;;;17.48;30.90
69127;BME280;56688;50.234;19.292;2023-04-28T07:22:32;98902.77;;;17.31;31.41
69127;BME280;56688;50.234;19.292;2023-04-28T07:24:59;98896.48;;;17.22;31.53
69127;BME280;56688;50.234;19.292;2023-04-28T07:27:26;98895.73;;;17.20;31.13
69127;BME280;56688;50.234;19.292;2023-04-28T07:29:53;98894.48;;;17.37;30.54
69127;BME280;56688;50.234;19.292;2023-04-28T07:32:20;98893.37;;;17.57;30.67
69127;BME280;56688;50.234;19.292;2023-04-28T07:34:47;98892.79;;;17.71;30.30
69127;BME280;56688;50.234;19.292;2023-04-28T07:37:15;98889.89;;;17.82;29.33
69127;BME280;56688;50.234;19.292;2023-04-28T07:39:42;98886.20;;;17.89;29.47
69127;BME280;56688;50.234;19.292;2023-04-28T07:42:09;98885.44;;;17.96;30.30
69127;BME280;56688;50.234;19.292;2023-04-28T07:44:36;98880.11;;;18.29;29.73
69127;BME280;56688;50.234;19.292;2023-04-28T07:47:03;98875.05;;;18.64;28.57
69127;BME280;56688;50.234;19.292;2023-04-28T07:49:30;98876.61;;;18.63;27.48
69127;BME280;56688;50.234;19.292;2023-04-28T07:51:57;98876.30;;;18.52;27.39
69127;BME280;56688;50.234;19.292;2023-04-28T07:54:24;98876.48;;;18.65;27.80
69127;BME280;56688;50.234;19.292;2023-04-28T07:56:51;98879.69;;;18.83;29.01
69127;BME280;56688;50.234;19.292;2023-04-28T07:59:18;98880.75;;;19.20;27.97
69127;BME280;56688;50.234;19.292;2023-04-28T08:01:45;98877.80;;;19.37;25.85
69127;BME280;56688;50.234;19.292;2023-04-28T08:04:12;98876.96;;;19.57;26.58
69127;BME280;56688;50.234;19.292;2023-04-28T08:06:40;98872.70;;;19.70;24.59
69127;BME280;56688;50.234;19.292;2023-04-28T08:09:07;98873.27;;;19.41;24.56
69127;BME280;56688;50.234;19.292;2023-04-28T08:11:34;98870.40;;;19.24;25.58
69127;BME280;56688;50.234;19.292;2023-04-28T08:14:01;98871.29;;;18.98;25.48
69127;BME280;56688;50.234;19.292;2023-04-28T08:16:30;98868.14;;;18.64;25.87
69127;BME280;56688;50.234;19.292;2023-04-28T08:18:57;98868.19;;;18.28;25.81
69127;BME280;56688;50.234;19.292;2023-04-28T08:21:25;98866.83;;;18.08;26.46
69127;BME280;56688;50.234;19.292;2023-04-28T08:23:52;98861.71;;;18.38;27.50
69127;BME280;56688;50.234;19.292;2023-04-28T08:26:20;98869.89;;;18.86;26.93
69127;BME280;56688;50.234;19.292;2023-04-28T08:28:47;98862.55;;;19.24;25.67
69127;BME280;56688;50.234;19.292;2023-04-28T08:31:13;98863.09;;;19.48;25.23
69127;BME280;56688;50.234;19.292;2023-04-28T08:33:40;98856.33;;;19.83;25.67
69127;BME280;56688;50.234;19.292;2023-04-28T08:36:10;98847.79;;;20.42;24.15
69127;BME280;56688;50.234;19.292;2023-04-28T08:38:40;98847.05;;;20.87;24.20
69127;BME280;56688;50.234;19.292;2023-04-28T08:41:07;98846.95;;;21.03;23.71
69127;BME280;56688;50.234;19.292;2023-04-28T08:43:34;98846.09;;;21.31;24.23
69127;BME280;56688;50.234;19.292;2023-04-28T08:46:05;98841.89;;;21.73;24.08
69127;BME280;56688;50.234;19.292;2023-04-28T08:48:40;98839.26;;;22.14;21.89
69127;BME280;56688;50.234;19.292;2023-04-28T08:51:11;98834.92;;;22.41;21.85
69127;BME280;56688;50.234;19.292;2023-04-28T08:53:43;98820.83;;;22.41;22.74
69127;BME280;56688;50.234;19.292;2023-04-28T08:56:32;98826.13;;;22.85;22.69
69127;BME280;56688;50.234;19.292;2023-04-28T08:59:04;98828.59;;;22.96;22.02
69127;BME280;56688;50.234;19.292;2023-04-28T09:01:31;98815.25;;;22.80;21.41
69127;BME280;56688;50.234;19.292;2023-04-28T09:04:00;98818.88;;;22.96;22.66
69127;BME280;56688;50.234;19.292;2023-04-28T09:06:35;98824.96;;;23.42;23.07
69127;BME280;56688;50.234;19.292;2023-04-28T09:09:19;98823.10;;;23.49;21.17
69127;BME280;56688;50.234;19.292;2023-04-28T09:11:51;98820.33;;;23.59;21.52
69127;BME280;56688;50.234;19.292;2023-04-28T09:14:18;98814.90;;;23.46;21.57
69127;BME280;56688;50.234;19.292;2023-04-28T09:16:44;98811.36;;;23.48;21.34
69127;BME280;56688;50.234;19.292;2023-04-28T09:19:12;98802.95;;;23.84;22.50
69127;BME280;56688;50.234;19.292;2023-04-28T09:21:55;98803.80;;;24.16;21.22
69127;BME280;56688;50.234;19.292;2023-04-28T09:24:26;98802.12;;;23.84;21.64
69127;BME280;56688;50.234;19.292;2023-04-28T09:26:53;98809.36;;;23.48;21.70
69127;BME280;56688;50.234;19.292;2023-04-28T09:29:21;98802.38;;;23.05;22.40
69127;BME280;56688;50.234;19.292;2023-04-28T09:31:48;98803.11;;;22.70;22.27
69127;BME280;56688;50.234;19.292;2023-04-28T09:34:15;98795.71;;;22.46;22.74
69127;BME280;56688;50.234;19.292;2023-04-28T09:36:42;98793.89;;;22.22;22.61
69127;BME280;56688;50.234;19.292;2023-04-28T09:39:09;98793.58;;;21.89;23.56
69127;BME280;56688;50.234;19.292;2023-04-28T09:41:38;98788.96;;;21.72;22.73
69127;BME280;56688;50.234;19.292;2023-04-28T09:44:12;98786.41;;;21.51;23.61
69127;BME280;56688;50.234;19.292;2023-04-28T09:46:40;98781.98;;;21.14;23.63
69127;BME280;56688;50.234;19.292;2023-04-28T09:49:07;98785.35;;;20.94;24.70
69127;BME280;56688;50.234;19.292;2023-04-28T09:51:35;98779.67;;;20.67;25.96
69127;BME280;56688;50.234;19.292;2023-04-28T09:54:02;98772.84;;;20.58;25.83
69127;BME280;56688;50.234;19.292;2023-04-28T09:56:32;98778.44;;;20.43;25.42
69127;BME280;56688;50.234;19.292;2023-04-28T09:59:00;98773.10;;;20.12;24.74
69127;BME280;56688;50.234;19.292;2023-04-28T10:01:32;98769.76;;;20.01;25.77
69127;BME280;56688;50.234;19.292;2023-04-28T10:03:59;98761.23;;;20.00;25.83
69127;BME280;56688;50.234;19.292;2023-04-28T10:06:29;98760.77;;;20.00;25.43
69127;BME280;56688;50.234;19.292;2023-04-28T10:08:57;98747.84;;;19.96;24.76
69127;BME280;56688;50.234;19.292;2023-04-28T10:11:26;98751.02;;;19.61;25.84
69127;BME280;56688;50.234;19.292;2023-04-28T10:13:54;98747.91;;;19.35;26.47
69127;BME280;56688;50.234;19.292;2023-04-28T10:16:21;98750.45;;;19.14;26.87
69127;BME280;56688;50.234;19.292;2023-04-28T10:18:49;98748.67;;;19.10;27.07
69127;BME280;56688;50.234;19.292;2023-04-28T10:21:18;98744.25;;;19.06;28.03
69127;BME280;56688;50.234;19.292;2023-04-28T10:26:17;98736.02;;;18.89;28.75
69127;BME280;56688;50.234;19.292;2023-04-28T10:28:49;98733.89;;;18.86;27.99
69127;BME280;56688;50.234;19.292;2023-04-28T10:31:18;98727.98;;;18.86;28.27
69127;BME280;56688;50.234;19.292;2023-04-28T10:33:47;98725.77;;;18.88;27.72
69127;BME280;56688;50.234;19.292;2023-04-28T10:39:13;98719.77;;;18.81;28.17
69127;BME280;56688;50.234;19.292;2023-04-28T10:41:41;98719.73;;;18.82;27.45
69127;BME280;56688;50.234;19.292;2023-04-28T10:47:05;98720.73;;;18.73;28.81
69127;BME280;56688;50.234;19.292;2023-04-28T11:00:38;98699.90;;;18.72;26.84
69127;BME280;56688;50.234;19.292;2023-04-28T11:03:06;98689.33;;;18.71;27.05
69127;BME280;56688;50.234;19.292;2023-04-28T11:05:33;98688.02;;;18.96;27.53
69127;BME280;56688;50.234;19.292;2023-04-28T11:13:43;98677.69;;;18.99;29.51
69127;BME280;56688;50.234;19.292;2023-04-28T11:16:15;98674.54;;;19.16;28.07
69127;BME280;56688;50.234;19.292;2023-04-28T11:21:22;98667.56;;;19.55;27.61
69127;BME280;56688;50.234;19.292;2023-04-28T11:23:50;98670.27;;;19.91;28.05
69127;BME280;56688;50.234;19.292;2023-04-28T11:26:18;98662.46;;;20.21;26.06
69127;BME280;56688;50.234;19.292;2023-04-28T11:31:15;98650.52;;;20.65;25.04
69127;BME280;56688;50.234;19.292;2023-04-28T11:33:49;98652.48;;;20.85;24.65
69127;BME280;56688;50.234;19.292;2023-04-28T11:36:26;98644.79;;;20.95;24.69
69127;BME280;56688;50.234;19.292;2023-04-28T11:38:55;98643.17;;;21.27;25.20
69127;BME280;56688;50.234;19.292;2023-04-28T11:41:22;98640.18;;;21.60;25.93
69127;BME280;56688;50.234;19.292;2023-04-28T11:43:50;98639.71;;;21.83;24.00
69127;BME280;56688;50.234;19.292;2023-04-28T11:46:18;98638.42;;;21.79;24.21
69127;BME280;56688;50.234;19.292;2023-04-28T11:48:46;98644.58;;;21.79;24.47
69127;BME280;56688;50.234;19.292;2023-04-28T11:51:33;98639.27;;;21.93;24.38
69127;BME280;56688;50.234;19.292;2023-04-28T11:54:01;98639.68;;;22.43;24.08
69127;BME280;56688;50.234;19.292;2023-04-28T11:56:29;98633.27;;;22.85;23.59
69127;BME280;56688;50.234;19.292;2023-04-28T11:59:00;98630.81;;;22.94;21.98
69127;BME280;56688;50.234;19.292;2023-04-28T12:01:31;98622.08;;;23.21;21.74
69127;BME280;56688;50.234;19.292;2023-04-28T12:03:58;98617.61;;;23.79;21.43
69127;BME280;56688;50.234;19.292;2023-04-28T12:06:25;98614.90;;;24.02;22.48
69127;BME280;56688;50.234;19.292;2023-04-28T12:08:52;98613.26;;;24.26;21.15
69127;BME280;56688;50.234;19.292;2023-04-28T12:11:19;98611.56;;;24.51;21.60
69127;BME280;56688;50.234;19.292;2023-04-28T12:14:04;98603.73;;;24.52;20.99
69127;BME280;56688;50.234;19.292;2023-04-28T12:16:39;98599.89;;;24.62;21.08
69127;BME280;56688;50.234;19.292;2023-04-28T12:19:10;98595.48;;;24.92;21.31
69127;BME280;56688;50.234;19.292;2023-04-28T12:21:38;98593.05;;;25.17;21.19
69127;BME280;56688;50.234;19.292;2023-04-28T12:24:21;98582.98;;;25.27;21.01
69127;BME280;56688;50.234;19.292;2023-04-28T12:26:48;98587.50;;;25.20;20.63
69127;BME280;56688;50.234;19.292;2023-04-28T12:29:34;98584.77;;;25.07;20.79
69127;BME280;56688;50.234;19.292;2023-04-28T12:35:49;98578.17;;;24.99;20.93
69127;BME280;56688;50.234;19.292;2023-04-28T12:38:16;98581.59;;;24.92;20.56
69127;BME280;56688;50.234;19.292;2023-04-28T12:40:43;98572.83;;;24.84;20.92
69127;BME280;56688;50.234;19.292;2023-04-28T12:43:10;98571.41;;;24.94;20.87
69127;BME280;56688;50.234;19.292;2023-04-28T12:45:37;98562.73;;;25.22;20.95
69127;BME280;56688;50.234;19.292;2023-04-28T12:48:04;98557.30;;;25.57;20.46
69127;BME280;56688;50.234;19.292;2023-04-28T12:50:32;98552.08;;;25.69;19.73
69127;BME280;56688;50.234;19.292;2023-04-28T12:52:59;98546.70;;;25.54;19.25
69127;BME280;56688;50.234;19.292;2023-04-28T12:55:27;98543.77;;;25.36;20.72
69127;BME280;56688;50.234;19.292;2023-04-28T12:57:54;98542.39;;;25.52;20.03
69127;BME280;56688;50.234;19.292;2023-04-28T13:00:21;98533.73;;;25.70;20.32
69127;BME280;56688;50.234;19.292;2023-04-28T13:02:50;98531.42;;;25.64;19.99
69127;BME280;56688;50.234;19.292;2023-04-28T13:05:19;98531.63;;;25.28;19.72
69127;BME280;56688;50.234;19.292;2023-04-28T13:07:46;98524.39;;;25.31;19.99
69127;BME280;56688;50.234;19.292;2023-04-28T13:10:13;98525.98;;;25.75;20.40
69127;BME280;56688;50.234;19.292;2023-04-28T13:12:40;98517.82;;;26.02;19.81
69127;BME280;56688;50.234;19.292;2023-04-28T13:15:08;98516.63;;;26.18;19.65
69127;BME280;56688;50.234;19.292;2023-04-28T13:17:35;98516.00;;;26.19;19.63
69127;BME280;56688;50.234;19.292;2023-04-28T13:20:02;98517.31;;;25.99;19.00
69127;BME280;56688;50.234;19.292;2023-04-28T13:22:30;98518.05;;;25.89;19.62
69127;BME280;56688;50.234;19.292;2023-04-28T13:24:57;98511.78;;;26.03;19.58
69127;BME280;56688;50.234;19.292;2023-04-28T13:27:24;98509.14;;;25.74;18.63
69127;BME280;56688;50.234;19.292;2023-04-28T13:29:51;98503.51;;;25.35;18.92
69127;BME280;56688;50.234;19.292;2023-04-28T13:32:18;98500.53;;;25.31;20.11
69127;BME280;56688;50.234;19.292;2023-04-28T13:34:45;98503.23;;;25.51;19.76